Time;durP1;ratioP1;P1;durP2;ratioP2;P2;SDS_P1;SDS_P2;PMS_P1;PMS_P2;Temp;Humidity;BMP_temperature;BMP_pressure;BME280_temperature;BME280_humidity;BME280_pressure;Samples;Min_cycle;Max_cycle;Signal;HPM_P1;HPM_P2
2022/12/16 00:01:49;;;;;;;54.90;30.60;;;0.70;99.90;;;;;;5012093;28;20165;-73
2022/12/16 00:04:16;;;;;;;53.43;29.40;;;0.60;99.90;;;;;;5012926;28;20158;-73
2022/12/16 00:06:43;;;;;;;52.43;30.67;;;0.80;99.90;;;;;;5011621;28;20576;-73
2022/12/16 00:09:09;;;;;;;50.73;30.23;;;0.60;99.90;;;;;;5012359;28;20176;-74
2022/12/16 00:11:35;;;;;;;56.00;31.17;;;0.70;99.90;;;;;;5011990;28;20264;-73
2022/12/16 00:14:01;;;;;;;57.40;29.77;;;0.70;99.90;;;;;;5011770;28;20253;-73
2022/12/16 00:16:27;;;;;;;52.93;29.40;;;0.60;99.90;;;;;;5011297;28;20180;-73
2022/12/16 00:18:54;;;;;;;51.53;30.40;;;0.70;99.90;;;;;;5011050;28;20169;-74
2022/12/16 00:21:19;;;;;;;59.80;35.47;;;1.00;99.90;;;;;;5012123;28;20239;-73
2022/12/16 00:23:45;;;;;;;53.00;30.57;;;1.10;99.90;;;;;;5012224;28;20728;-73
2022/12/16 00:26:12;;;;;;;56.93;33.23;;;1.20;99.90;;;;;;5012459;28;20546;-73
2022/12/16 00:28:38;;;;;;;57.97;33.73;;;1.30;99.90;;;;;;5012040;28;20213;-73
2022/12/16 00:31:05;;;;;;;49.43;30.77;;;1.60;99.90;;;;;;5011424;28;20176;-73
2022/12/16 00:33:31;;;;;;;44.17;25.17;;;1.90;99.90;;;;;;5012099;28;20169;-73
2022/12/16 00:35:57;;;;;;;48.33;28.40;;;2.00;99.90;;;;;;5012345;28;20171;-73
2022/12/16 00:38:24;;;;;;;46.73;27.40;;;2.10;99.90;;;;;;5011773;28;20255;-74
2022/12/16 00:40:50;;;;;;;56.67;32.63;;;2.20;99.90;;;;;;5011950;28;20695;-73
2022/12/16 00:43:15;;;;;;;45.93;32.47;;;2.30;99.90;;;;;;5010172;28;20359;-73
2022/12/16 00:45:41;;;;;;;44.07;25.60;;;2.40;99.90;;;;;;5012378;28;20211;-73
2022/12/16 00:48:07;;;;;;;42.27;26.10;;;2.30;99.90;;;;;;5011963;28;20189;-74
2022/12/16 00:50:33;;;;;;;41.40;25.20;;;2.20;99.90;;;;;;5012225;28;20180;-73
2022/12/16 00:53:01;;;;;;;42.40;23.80;;;2.20;99.90;;;;;;5011513;28;20176;-75
2022/12/16 00:55:29;;;;;;;36.67;21.80;;;2.10;99.90;;;;;;5011002;28;20255;-74
2022/12/16 00:57:55;;;;;;;36.47;22.70;;;2.40;99.90;;;;;;5011741;28;20181;-74
2022/12/16 01:00:21;;;;;;;38.47;21.93;;;2.50;99.90;;;;;;5012074;28;20165;-75
2022/12/16 01:02:48;;;;;;;35.13;20.87;;;2.60;99.90;;;;;;5011264;28;20185;-73
2022/12/16 01:05:17;;;;;;;35.83;22.17;;;2.70;99.90;;;;;;5010927;28;20168;-73
2022/12/16 01:07:42;;;;;;;36.77;21.07;;;2.50;99.90;;;;;;5010415;28;20197;-73
2022/12/16 01:10:09;;;;;;;45.67;28.97;;;2.10;99.90;;;;;;5011794;28;20176;-73
2022/12/16 01:12:36;;;;;;;46.30;25.30;;;1.70;99.90;;;;;;5011325;28;20700;-73
2022/12/16 01:15:04;;;;;;;46.20;29.13;;;1.80;99.90;;;;;;5012221;28;20626;-73
2022/12/16 01:17:30;;;;;;;40.13;22.83;;;1.90;99.90;;;;;;5012041;28;20158;-73
2022/12/16 01:19:55;;;;;;;41.07;24.23;;;1.90;99.90;;;;;;5011937;28;20228;-73
2022/12/16 01:22:21;;;;;;;38.30;22.93;;;1.70;99.90;;;;;;5011246;28;20180;-73
2022/12/16 01:24:47;;;;;;;46.47;25.63;;;1.70;99.90;;;;;;5011486;28;20173;-73
2022/12/16 01:27:14;;;;;;;62.57;35.90;;;1.90;99.90;;;;;;5014851;28;20189;-72
2022/12/16 01:29:40;;;;;;;61.33;33.50;;;2.00;99.90;;;;;;5015385;28;20611;-74
2022/12/16 01:32:06;;;;;;;58.43;28.93;;;2.00;99.90;;;;;;5015202;28;20180;-73
2022/12/16 01:34:32;;;;;;;43.93;24.80;;;1.90;99.90;;;;;;5014961;28;20271;-74
2022/12/16 01:36:57;;;;;;;49.13;26.93;;;2.10;99.90;;;;;;5014775;28;20251;-74
2022/12/16 01:39:25;;;;;;;48.00;26.40;;;2.20;99.90;;;;;;5015012;28;20196;-75
2022/12/16 01:41:51;;;;;;;58.97;32.70;;;2.20;99.90;;;;;;5014193;28;20169;-73
2022/12/16 01:44:20;;;;;;;59.93;35.03;;;2.00;99.90;;;;;;5014985;28;20718;-73
2022/12/16 01:46:53;;;;;;;44.27;26.97;;;1.90;99.90;;;;;;5014406;28;20689;-73
2022/12/16 01:49:34;;;;;;;54.90;30.77;;;1.70;99.90;;;;;;5012934;28;20184;-74
2022/12/16 01:52:04;;;;;;;45.77;26.30;;;1.70;99.90;;;;;;5014566;28;20656;-74
2022/12/16 01:54:41;;;;;;;51.10;28.13;;;1.40;99.90;;;;;;5014698;28;20204;-73
2022/12/16 01:57:11;;;;;;;47.93;26.23;;;1.50;99.90;;;;;;5014415;28;20262;-74
2022/12/16 01:59:40;;;;;;;44.63;25.57;;;1.70;99.90;;;;;;5013418;28;20176;-74
2022/12/16 02:02:07;;;;;;;49.67;27.03;;;1.90;99.90;;;;;;5014538;28;20619;-74
2022/12/16 02:04:33;;;;;;;53.50;31.47;;;2.00;99.90;;;;;;5014404;28;20203;-73
2022/12/16 02:07:00;;;;;;;43.40;25.27;;;1.90;99.90;;;;;;5013127;28;20635;-73
2022/12/16 02:09:25;;;;;;;45.67;27.17;;;2.00;99.90;;;;;;5014100;28;20513;-73
2022/12/16 02:11:51;;;;;;;48.43;28.17;;;2.10;99.90;;;;;;5014766;28;20165;-73
2022/12/16 02:14:41;;;;;;;38.53;22.83;;;2.10;99.90;;;;;;5014327;28;20173;-73
2022/12/16 02:17:27;;;;;;;41.60;26.33;;;2.20;99.90;;;;;;5014503;28;20169;-73
2022/12/16 02:20:10;;;;;;;42.80;22.90;;;2.20;99.90;;;;;;5013698;28;20173;-73
2022/12/16 02:23:00;;;;;;;40.30;23.37;;;2.10;99.90;;;;;;5014075;28;20203;-73
2022/12/16 02:25:50;;;;;;;54.53;27.50;;;2.20;99.90;;;;;;4994832;28;20184;-73
2022/12/16 02:28:43;;;;;;;47.97;27.43;;;2.40;99.90;;;;;;5003742;28;20205;-73
2022/12/16 02:31:18;;;;;;;53.37;26.70;;;2.50;99.90;;;;;;5013471;28;20169;-73
2022/12/16 02:33:51;;;;;;;42.77;24.07;;;2.40;99.90;;;;;;5013738;28;20183;-73
2022/12/16 02:36:41;;;;;;;45.20;26.73;;;2.60;99.90;;;;;;5012975;28;20204;-73
2022/12/16 02:39:34;;;;;;;59.50;32.07;;;2.40;99.90;;;;;;5013494;28;20193;-73
2022/12/16 02:42:17;;;;;;;39.13;22.90;;;2.20;99.90;;;;;;5014081;28;20193;-73
2022/12/16 02:45:06;;;;;;;40.97;23.43;;;2.40;99.90;;;;;;5013535;28;20654;-73
2022/12/16 02:47:32;;;;;;;49.40;27.77;;;2.40;99.90;;;;;;5012590;28;20208;-74
2022/12/16 02:49:59;;;;;;;46.70;24.07;;;2.10;99.90;;;;;;5012300;28;20173;-73
2022/12/16 02:52:28;;;;;;;48.93;23.87;;;2.20;99.90;;;;;;5013945;28;20166;-73
2022/12/16 02:55:01;;;;;;;38.07;22.80;;;2.40;99.90;;;;;;5013883;28;20177;-74
2022/12/16 02:58:07;;;;;;;40.70;24.70;;;2.50;99.90;;;;;;5013839;28;20238;-74
2022/12/16 03:01:15;;;;;;;57.80;29.73;;;2.40;99.90;;;;;;5012452;28;20173;-75
2022/12/16 03:03:54;;;;;;;45.10;25.60;;;2.40;99.90;;;;;;5012999;28;20223;-73
2022/12/16 03:06:22;;;;;;;39.03;23.73;;;2.50;99.90;;;;;;5013620;28;20184;-74
2022/12/16 03:08:53;;;;;;;47.13;24.53;;;2.50;99.90;;;;;;5013584;28;20201;-73
2022/12/16 03:11:19;;;;;;;44.33;24.70;;;2.50;99.90;;;;;;5013400;28;20627;-74
2022/12/16 03:13:50;;;;;;;40.30;23.37;;;2.40;99.90;;;;;;5013650;28;20219;-74
2022/12/16 03:16:19;;;;;;;45.13;23.93;;;2.40;99.90;;;;;;5013415;28;20213;-73
2022/12/16 03:18:50;;;;;;;44.17;23.50;;;2.40;99.90;;;;;;5013300;28;20216;-73
2022/12/16 03:21:17;;;;;;;43.00;24.07;;;2.40;99.90;;;;;;5013302;28;20645;-72
2022/12/16 03:23:52;;;;;;;39.73;22.97;;;2.40;99.90;;;;;;5012184;28;20170;-72
2022/12/16 03:26:36;;;;;;;42.50;24.07;;;2.50;99.90;;;;;;5013702;28;20484;-71
2022/12/16 03:29:08;;;;;;;41.77;24.67;;;2.50;99.90;;;;;;5013148;28;20650;-71
2022/12/16 03:31:49;;;;;;;41.50;25.00;;;2.70;99.90;;;;;;5011919;28;20184;-71
2022/12/16 03:34:40;;;;;;;45.63;25.40;;;2.80;99.90;;;;;;5012004;28;20261;-71
2022/12/16 03:37:10;;;;;;;42.87;23.07;;;2.40;99.90;;;;;;5012865;28;20268;-72
2022/12/16 03:39:43;;;;;;;45.33;25.10;;;2.20;99.90;;;;;;5013035;28;20510;-72
2022/12/16 03:42:10;;;;;;;46.70;25.03;;;2.30;99.90;;;;;;5013064;28;20165;-72
2022/12/16 03:44:36;;;;;;;42.73;23.53;;;2.30;99.90;;;;;;5013107;28;20263;-70
2022/12/16 03:47:02;;;;;;;41.50;22.30;;;2.30;99.90;;;;;;5012747;28;20161;-71
2022/12/16 03:49:27;;;;;;;37.87;22.97;;;2.30;99.90;;;;;;5012778;28;20715;-71
2022/12/16 03:51:55;;;;;;;39.40;22.67;;;2.40;99.90;;;;;;5012821;28;20236;-71
2022/12/16 03:54:20;;;;;;;43.50;23.20;;;2.40;99.90;;;;;;5012897;28;20256;-73
2022/12/16 03:56:46;;;;;;;45.07;23.83;;;2.40;99.90;;;;;;5012786;28;20643;-73
2022/12/16 03:59:12;;;;;;;43.03;24.40;;;2.40;99.90;;;;;;5012940;28;20169;-73
2022/12/16 04:01:38;;;;;;;48.90;24.13;;;2.40;99.90;;;;;;5012628;28;20165;-71
2022/12/16 04:04:04;;;;;;;41.17;23.60;;;2.40;99.90;;;;;;5012745;28;20224;-71
2022/12/16 04:06:30;;;;;;;50.10;24.33;;;2.50;99.90;;;;;;5012637;28;20224;-71
2022/12/16 04:08:56;;;;;;;48.87;24.57;;;2.50;99.90;;;;;;5012745;28;20236;-72
2022/12/16 04:25:17;;;;;;;44.90;24.83;;;2.50;99.90;;;;;;5012580;28;20523;-73
2022/12/16 04:27:46;;;;;;;49.03;25.97;;;2.50;99.90;;;;;;5012379;28;20279;-72
2022/12/16 04:30:19;;;;;;;53.90;26.93;;;2.50;99.90;;;;;;5012605;28;20169;-72
